Time;durP1;ratioP1;P1;durP2;ratioP2;P2;SDS_P1;SDS_P2;PMS_P1;PMS_P2;Temp;Humidity;BMP_temperature;BMP_pressure;BME280_temperature;BME280_humidity;BME280_pressure;Samples;Min_cycle;Max_cycle;Signal;HPM_P1;HPM_P2
2023/07/31 00:00:39;;;;;;;0.00;0.00;;;18.10;99.90;;;;;;5035526;28;20045;-70
2023/07/31 00:03:05;;;;;;;0.00;0.00;;;18.00;99.90;;;;;;5035326;28;20041;-70
2023/07/31 00:05:30;;;;;;;0.00;0.00;;;18.00;99.90;;;;;;5022142;28;20037;-70
2023/07/31 00:07:56;;;;;;;0.00;0.00;;;18.00;99.90;;;;;;5038631;28;20046;-70
2023/07/31 00:10:22;;;;;;;0.00;0.00;;;18.00;99.90;;;;;;5043147;28;20041;-70
2023/07/31 00:12:48;;;;;;;0.00;0.00;;;18.00;99.90;;;;;;5040656;28;20403;-70
2023/07/31 00:15:14;;;;;;;0.00;0.00;;;17.90;99.90;;;;;;5041184;28;20037;-70
2023/07/31 00:17:40;;;;;;;0.00;0.00;;;18.00;99.90;;;;;;5036139;28;20480;-70
2023/07/31 00:20:06;;;;;;;0.08;0.08;;;17.90;99.90;;;;;;5029043;28;20067;-70
2023/07/31 00:22:32;;;;;;;0.32;0.32;;;17.90;99.90;;;;;;5041741;28;20032;-70
2023/07/31 00:24:58;;;;;;;0.00;0.00;;;17.90;99.90;;;;;;5047581;28;20087;-70
2023/07/31 00:27:23;;;;;;;0.00;0.00;;;17.80;99.90;;;;;;5044106;28;20049;-70
2023/07/31 00:29:49;;;;;;;0.98;0.70;;;17.80;99.90;;;;;;5036972;28;20443;-70
2023/07/31 00:32:15;;;;;;;0.20;0.20;;;17.80;99.90;;;;;;5048986;28;20037;-71
2023/07/31 00:34:40;;;;;;;0.05;0.05;;;17.80;99.90;;;;;;5042062;28;20098;-72
2023/07/31 00:37:06;;;;;;;0.65;0.32;;;17.80;99.90;;;;;;5044752;28;20083;-72
2023/07/31 00:39:34;;;;;;;0.00;0.00;;;17.80;99.90;;;;;;5041661;28;20048;-71
2023/07/31 00:42:00;;;;;;;0.00;0.00;;;17.80;99.90;;;;;;5041146;28;20052;-71
2023/07/31 00:44:26;;;;;;;0.00;0.00;;;17.80;99.90;;;;;;5045342;28;20104;-71
2023/07/31 00:46:52;;;;;;;0.00;0.00;;;17.80;99.90;;;;;;5042958;28;20087;-72
2023/07/31 00:49:18;;;;;;;0.00;0.00;;;17.80;99.90;;;;;;5041877;28;20400;-72
2023/07/31 00:51:43;;;;;;;0.00;0.00;;;17.80;99.90;;;;;;5047415;28;20060;-72
2023/07/31 00:54:09;;;;;;;0.00;0.00;;;17.80;99.90;;;;;;5046528;28;20202;-72
2023/07/31 00:56:35;;;;;;;0.00;0.00;;;17.70;99.90;;;;;;5036285;28;20068;-71
2023/07/31 00:59:00;;;;;;;0.80;0.80;;;17.70;99.90;;;;;;5038629;28;20059;-71
2023/07/31 01:01:26;;;;;;;0.08;0.08;;;17.60;99.90;;;;;;5037854;28;20103;-70
2023/07/31 01:03:53;;;;;;;0.00;0.00;;;17.70;99.90;;;;;;5039236;28;20086;-70
2023/07/31 01:06:50;;;;;;;0.00;0.00;;;17.70;99.90;;;;;;5035540;28;20075;-70
2023/07/31 01:09:36;;;;;;;0.15;0.15;;;17.70;99.90;;;;;;5040857;28;20044;-71
2023/07/31 01:12:04;;;;;;;0.00;0.00;;;17.60;99.90;;;;;;5039585;28;20042;-71
2023/07/31 01:14:30;;;;;;;0.30;0.30;;;17.60;99.90;;;;;;5043989;28;20400;-72
2023/07/31 01:16:55;;;;;;;0.00;0.00;;;17.60;99.90;;;;;;5039301;28;20041;-72
2023/07/31 01:19:26;;;;;;;2.78;2.47;;;17.60;99.90;;;;;;5039508;28;20041;-72
2023/07/31 01:22:16;;;;;;;0.00;0.00;;;17.60;99.90;;;;;;5041195;28;20080;-71
2023/07/31 01:25:24;;;;;;;0.90;0.90;;;17.50;99.90;;;;;;5036944;28;20453;-71
2023/07/31 01:28:00;;;;;;;0.00;0.00;;;17.50;99.90;;;;;;5040683;28;20056;-71
2023/07/31 01:30:33;;;;;;;0.10;0.10;;;17.50;99.90;;;;;;5041993;28;20135;-71
2023/07/31 01:33:01;;;;;;;0.10;0.10;;;17.50;99.90;;;;;;5039717;28;20041;-71
2023/07/31 01:35:27;;;;;;;0.00;0.00;;;17.50;99.90;;;;;;5040581;28;20041;-71
2023/07/31 01:37:54;;;;;;;0.08;0.08;;;17.50;99.90;;;;;;5040515;28;20043;-71
2023/07/31 01:40:19;;;;;;;0.65;0.65;;;17.50;99.90;;;;;;5042053;28;20037;-71
2023/07/31 01:42:45;;;;;;;0.00;0.00;;;17.40;99.90;;;;;;5036309;28;20044;-71
2023/07/31 01:45:11;;;;;;;0.00;0.00;;;17.40;99.90;;;;;;5049772;28;20048;-71
2023/07/31 01:47:37;;;;;;;0.00;0.00;;;17.40;99.90;;;;;;5035809;28;20381;-72
2023/07/31 01:50:02;;;;;;;0.00;0.00;;;17.40;99.90;;;;;;5044577;28;20152;-72
2023/07/31 01:52:29;;;;;;;0.00;0.00;;;17.40;99.90;;;;;;5037368;28;20057;-71
2023/07/31 01:54:55;;;;;;;0.00;0.00;;;17.40;99.90;;;;;;5048943;28;20041;-71
2023/07/31 01:57:21;;;;;;;0.00;0.00;;;17.40;99.90;;;;;;5039101;28;20052;-71
2023/07/31 01:59:46;;;;;;;0.00;0.00;;;17.40;99.90;;;;;;5039465;28;20473;-72
2023/07/31 02:02:13;;;;;;;0.10;0.10;;;17.40;99.90;;;;;;5047536;28;20053;-71
2023/07/31 02:04:39;;;;;;;0.40;0.40;;;17.40;99.90;;;;;;5049501;28;20498;-71
2023/07/31 02:07:05;;;;;;;0.00;0.00;;;17.40;99.90;;;;;;5040664;28;20045;-71
2023/07/31 02:09:31;;;;;;;0.00;0.00;;;17.30;99.90;;;;;;5038218;28;20436;-72
2023/07/31 02:11:56;;;;;;;0.00;0.00;;;17.30;99.90;;;;;;5046251;28;20507;-71
2023/07/31 02:14:22;;;;;;;0.00;0.00;;;17.40;99.90;;;;;;5050640;28;20456;-71
2023/07/31 02:16:47;;;;;;;0.00;0.00;;;17.30;99.90;;;;;;5047168;28;20045;-71
2023/07/31 02:19:13;;;;;;;0.00;0.00;;;17.30;99.90;;;;;;5040765;28;20484;-71
2023/07/31 02:21:39;;;;;;;0.52;0.52;;;17.30;99.90;;;;;;5037751;28;21608;-71
2023/07/31 02:24:04;;;;;;;0.00;0.00;;;17.30;99.90;;;;;;5051370;28;20045;-71
2023/07/31 02:26:30;;;;;;;0.00;0.00;;;17.30;99.90;;;;;;5039493;28;20480;-71
2023/07/31 02:28:55;;;;;;;0.00;0.00;;;17.30;99.90;;;;;;5045618;28;20470;-71
2023/07/31 02:31:21;;;;;;;0.00;0.00;;;17.20;99.90;;;;;;5050562;28;20041;-71
2023/07/31 02:33:47;;;;;;;0.57;0.38;;;17.20;99.90;;;;;;5041025;28;20073;-71
2023/07/31 02:36:12;;;;;;;0.00;0.00;;;17.20;99.90;;;;;;5048013;28;20107;-71
2023/07/31 02:38:38;;;;;;;0.00;0.00;;;17.30;99.90;;;;;;5040903;28;20041;-71
2023/07/31 02:41:03;;;;;;;0.00;0.00;;;17.20;99.90;;;;;;5044565;28;20045;-71
2023/07/31 02:43:29;;;;;;;0.00;0.00;;;17.20;99.90;;;;;;5040787;28;20034;-71
2023/07/31 02:45:54;;;;;;;0.00;0.00;;;17.30;99.90;;;;;;5041949;28;20045;-71
2023/07/31 02:48:20;;;;;;;0.38;0.30;;;17.20;99.90;;;;;;5039771;28;20045;-71
2023/07/31 02:50:47;;;;;;;0.00;0.00;;;17.20;99.90;;;;;;5048449;28;20044;-71
2023/07/31 02:53:12;;;;;;;0.00;0.00;;;17.20;99.90;;;;;;5050871;28;20136;-70
2023/07/31 02:55:38;;;;;;;0.13;0.13;;;17.10;99.90;;;;;;5039701;28;20440;-71
2023/07/31 02:58:04;;;;;;;0.00;0.00;;;17.00;99.90;;;;;;5041551;28;20052;-71
2023/07/31 03:00:29;;;;;;;0.00;0.00;;;17.00;99.90;;;;;;5047524;28;20041;-72
2023/07/31 03:02:55;;;;;;;0.00;0.00;;;17.00;99.90;;;;;;5043924;28;20049;-71
2023/07/31 03:05:21;;;;;;;0.22;0.22;;;16.90;99.90;;;;;;5038082;28;20766;-71
2023/07/31 03:07:46;;;;;;;0.00;0.00;;;16.90;99.90;;;;;;5038281;28;20046;-71
2023/07/31 03:10:12;;;;;;;0.17;0.17;;;16.90;99.90;;;;;;5040204;28;20099;-71
2023/07/31 03:12:37;;;;;;;0.00;0.00;;;16.90;99.90;;;;;;5024611;28;20055;-71
2023/07/31 03:15:04;;;;;;;0.00;0.00;;;16.90;99.90;;;;;;5041935;28;20048;-71
2023/07/31 03:17:29;;;;;;;0.00;0.00;;;16.90;99.90;;;;;;5042918;28;20477;-71
2023/07/31 03:19:55;;;;;;;0.00;0.00;;;16.80;99.90;;;;;;5049676;28;20044;-71
2023/07/31 03:22:20;;;;;;;0.17;0.17;;;16.80;99.90;;;;;;5040795;28;20056;-71
2023/07/31 03:24:46;;;;;;;0.00;0.00;;;16.80;99.90;;;;;;5037000;28;20041;-71
2023/07/31 03:27:11;;;;;;;0.00;0.00;;;16.80;99.90;;;;;;5043627;28;20049;-71
2023/07/31 03:29:37;;;;;;;0.00;0.00;;;16.80;99.90;;;;;;5033665;28;20068;-70
2023/07/31 03:32:03;;;;;;;0.82;0.38;;;16.80;99.90;;;;;;5036243;28;20068;-70
2023/07/31 03:34:29;;;;;;;0.22;0.10;;;16.80;99.90;;;;;;5043975;28;20400;-70
2023/07/31 03:36:54;;;;;;;0.00;0.00;;;16.80;99.90;;;;;;5046634;28;20040;-71
2023/07/31 03:39:20;;;;;;;0.00;0.00;;;16.80;99.90;;;;;;5037083;28;20041;-71
2023/07/31 03:41:46;;;;;;;0.10;0.10;;;16.80;99.90;;;;;;5044082;28;20028;-72
2023/07/31 03:44:11;;;;;;;0.03;0.03;;;16.80;99.90;;;;;;5041584;28;20037;-71
2023/07/31 03:46:37;;;;;;;0.00;0.00;;;16.80;99.90;;;;;;5042803;28;20049;-71
2023/07/31 03:49:03;;;;;;;0.10;0.10;;;16.80;99.90;;;;;;5036672;28;20065;-71
2023/07/31 03:51:28;;;;;;;0.03;0.03;;;16.80;99.90;;;;;;5028749;28;20049;-71
2023/07/31 03:53:54;;;;;;;0.00;0.00;;;16.80;99.90;;;;;;5030315;28;20072;-71
2023/07/31 03:56:19;;;;;;;0.00;0.00;;;16.80;99.90;;;;;;5048737;28;20504;-70
2023/07/31 03:58:45;;;;;;;0.00;0.00;;;16.80;99.90;;;;;;5039672;28;20567;-70
2023/07/31 04:01:11;;;;;;;0.08;0.08;;;16.80;99.90;;;;;;5042801;28;20049;-70
2023/07/31 04:03:36;;;;;;;0.00;0.00;;;16.80;99.90;;;;;;5049459;28;20037;-70
2023/07/31 04:06:02;;;;;;;0.00;0.00;;;16.80;99.90;;;;;;5025797;28;20529;-70
2023/07/31 04:08:28;;;;;;;0.00;0.00;;;16.80;99.90;;;;;;5044686;28;20048;-70
2023/07/31 04:10:53;;;;;;;0.15;0.15;;;16.80;99.90;;;;;;5042813;28;20056;-71
2023/07/31 04:13:19;;;;;;;0.00;0.00;;;16.90;99.90;;;;;;5036666;28;20167;-70
2023/07/31 04:15:49;;;;;;;0.00;0.00;;;16.90;99.90;;;;;;5029462;28;20049;-70
2023/07/31 04:18:15;;;;;;;0.00;0.00;;;16.90;99.90;;;;;;5040865;28;20053;-70
2023/07/31 04:20:40;;;;;;;0.00;0.00;;;16.90;99.90;;;;;;5029696;28;20064;-69
2023/07/31 04:23:06;;;;;;;2.85;0.38;;;16.90;99.90;;;;;;5043419;28;20503;-70
2023/07/31 04:25:32;;;;;;;0.00;0.00;;;16.90;99.90;;;;;;5037988;28;20068;-70
2023/07/31 04:27:57;;;;;;;0.00;0.00;;;16.90;99.90;;;;;;5038871;28;20053;-69
2023/07/31 04:30:23;;;;;;;0.20;0.20;;;17.00;99.90;;;;;;5042775;28;20995;-69
2023/07/31 04:32:49;;;;;;;0.40;0.40;;;17.00;99.90;;;;;;5043344;28;20033;-70
2023/07/31 04:35:15;;;;;;;7.57;2.45;;;17.00;99.90;;;;;;5036067;28;20050;-70
2023/07/31 04:37:41;;;;;;;0.00;0.00;;;17.00;99.90;;;;;;5043649;28;20055;-70
2023/07/31 04:40:08;;;;;;;2.67;1.48;;;17.00;99.90;;;;;;5048730;28;20381;-70
2023/07/31 04:42:34;;;;;;;0.70;0.65;;;17.10;99.90;;;;;;5034264;28;20033;-70
2023/07/31 04:45:00;;;;;;;0.00;0.00;;;17.10;99.90;;;;;;5039693;28;20071;-70
2023/07/31 04:47:25;;;;;;;0.63;0.63;;;17.10;99.90;;;;;;5042303;28;20037;-70
2023/07/31 04:49:51;;;;;;;0.47;0.47;;;17.10;99.90;;;;;;5030866;28;20037;-70
2023/07/31 04:52:16;;;;;;;0.60;0.60;;;17.10;99.90;;;;;;5046374;28;20128;-70
2023/07/31 04:54:42;;;;;;;0.00;0.00;;;17.10;99.90;;;;;;5038845;28;20044;-70
2023/07/31 04:57:08;;;;;;;0.40;0.40;;;17.10;99.90;;;;;;5041129;28;20045;-70
2023/07/31 04:59:33;;;;;;;0.00;0.00;;;17.10;99.90;;;;;;5040602;28;20051;-69
2023/07/31 05:01:59;;;;;;;0.52;0.52;;;17.10;99.90;;;;;;5038567;28;20072;-69
2023/07/31 05:04:24;;;;;;;0.00;0.00;;;17.10;99.90;;;;;;5041443;28;20107;-69
2023/07/31 05:06:50;;;;;;;0.00;0.00;;;17.00;99.90;;;;;;5022163;28;20054;-70
2023/07/31 05:09:15;;;;;;;0.00;0.00;;;17.10;99.90;;;;;;5034789;28;20404;-69
2023/07/31 05:11:42;;;;;;;0.00;0.00;;;17.10;99.90;;;;;;5048956;28;20082;-70
2023/07/31 05:14:08;;;;;;;0.95;0.75;;;17.10;99.90;;;;;;5046382;28;20500;-70
2023/07/31 05:16:34;;;;;;;0.00;0.00;;;17.00;99.90;;;;;;5039224;28;20049;-70
2023/07/31 05:19:00;;;;;;;0.13;0.13;;;17.10;99.90;;;;;;5034864;28;20041;-71
2023/07/31 05:21:25;;;;;;;0.10;0.10;;;17.10;99.90;;;;;;5036979;28;20095;-71
2023/07/31 05:23:51;;;;;;;0.00;0.00;;;17.00;99.90;;;;;;5024344;28;20049;-70
2023/07/31 05:26:17;;;;;;;0.10;0.10;;;17.00;99.90;;;;;;5038864;28;20053;-70
2023/07/31 05:28:43;;;;;;;0.52;0.52;;;17.00;99.90;;;;;;5032480;28;20037;-70
2023/07/31 05:31:08;;;;;;;1.08;0.85;;;17.00;99.90;;;;;;5024806;28;20091;-70
2023/07/31 05:33:34;;;;;;;2.28;0.20;;;17.10;99.90;;;;;;5046699;28;20063;-70
2023/07/31 05:35:59;;;;;;;0.47;0.47;;;17.10;99.90;;;;;;5049931;28;20032;-70
2023/07/31 05:38:25;;;;;;;3.40;0.38;;;17.10;99.90;;;;;;5036172;28;20127;-70
2023/07/31 05:40:51;;;;;;;0.90;0.50;;;17.10;99.90;;;;;;5041730;28;20059;-69
2023/07/31 05:43:16;;;;;;;0.00;0.00;;;17.10;99.90;;;;;;5030802;28;20064;-69
2023/07/31 05:45:43;;;;;;;0.65;0.20;;;17.10;99.90;;;;;;5042910;28;20044;-69
2023/07/31 05:48:08;;;;;;;0.00;0.00;;;17.10;99.90;;;;;;5034985;28;20163;-68
2023/07/31 05:50:34;;;;;;;0.20;0.20;;;17.10;99.90;;;;;;5039033;28;20184;-69
2023/07/31 05:53:00;;;;;;;0.00;0.00;;;17.10;99.90;;;;;;5031887;28;20048;-69
2023/07/31 05:55:29;;;;;;;0.00;0.00;;;17.10;99.90;;;;;;5030494;28;20181;-70
2023/07/31 05:57:54;;;;;;;0.00;0.00;;;17.10;99.90;;;;;;5048192;28;20049;-69
2023/07/31 06:00:20;;;;;;;0.55;0.47;;;17.10;99.90;;;;;;5029544;28;20481;-69
2023/07/31 06:02:47;;;;;;;0.00;0.00;;;17.10;99.90;;;;;;5044240;28;20595;-69
2023/07/31 06:05:13;;;;;;;0.00;0.00;;;17.10;99.90;;;;;;5044814;28;20120;-69
2023/07/31 06:07:38;;;;;;;0.00;0.00;;;17.10;99.90;;;;;;5045299;28;20079;-69
2023/07/31 06:10:05;;;;;;;0.17;0.13;;;17.10;99.90;;;;;;5037185;28;20481;-69
2023/07/31 06:12:34;;;;;;;0.00;0.00;;;17.10;99.90;;;;;;5030825;28;20048;-69
2023/07/31 06:15:00;;;;;;;0.10;0.10;;;17.10;99.90;;;;;;5049674;28;20041;-68
2023/07/31 06:17:26;;;;;;;0.20;0.20;;;17.20;99.90;;;;;;5044226;28;20052;-68
2023/07/31 06:19:52;;;;;;;0.85;0.45;;;17.20;99.90;;;;;;5036438;28;20388;-69
2023/07/31 06:22:18;;;;;;;0.10;0.10;;;17.20;99.90;;;;;;5022361;28;20056;-69
2023/07/31 06:24:44;;;;;;;0.20;0.20;;;17.30;99.90;;;;;;5050366;28;20029;-69
2023/07/31 06:27:10;;;;;;;0.45;0.40;;;17.30;99.90;;;;;;5049130;28;20480;-69
2023/07/31 06:29:36;;;;;;;0.00;0.00;;;17.30;99.90;;;;;;5041421;28;20052;-69
2023/07/31 06:32:03;;;;;;;0.13;0.13;;;17.30;99.90;;;;;;5020304;28;20041;-69
2023/07/31 06:34:28;;;;;;;0.00;0.00;;;17.30;99.90;;;;;;5040347;28;20541;-69
2023/07/31 06:36:55;;;;;;;1.45;1.08;;;17.30;99.90;;;;;;5024920;28;20045;-69
2023/07/31 06:39:21;;;;;;;0.15;0.15;;;17.30;99.90;;;;;;5033804;28;20063;-68
2023/07/31 06:41:46;;;;;;;1.55;1.45;;;17.30;99.90;;;;;;5038033;28;20458;-70
2023/07/31 06:44:12;;;;;;;0.00;0.00;;;17.30;99.90;;;;;;5048346;28;20045;-69
2023/07/31 06:46:38;;;;;;;0.20;0.13;;;17.30;99.90;;;;;;5041740;28;20049;-69
2023/07/31 06:49:03;;;;;;;0.43;0.43;;;17.30;99.90;;;;;;5038721;28;20044;-69
2023/07/31 06:51:31;;;;;;;0.00;0.00;;;17.30;99.90;;;;;;5042170;28;20128;-68
2023/07/31 06:53:57;;;;;;;0.40;0.25;;;17.30;99.90;;;;;;5046172;28;20048;-69
2023/07/31 06:56:23;;;;;;;0.05;0.05;;;17.40;99.90;;;;;;5036698;28;20037;-69
2023/07/31 06:58:48;;;;;;;0.65;0.65;;;17.30;99.90;;;;;;5019051;28;20045;-70
2023/07/31 07:01:14;;;;;;;0.22;0.20;;;17.30;99.90;;;;;;5044078;28;20362;-69
2023/07/31 07:03:39;;;;;;;0.00;0.00;;;17.40;99.90;;;;;;5036795;28;20096;-69
2023/07/31 07:06:05;;;;;;;0.08;0.08;;;17.40;99.90;;;;;;5037305;28;20099;-69
2023/07/31 07:08:31;;;;;;;0.00;0.00;;;17.40;99.90;;;;;;5024153;28;20044;-70
2023/07/31 07:10:56;;;;;;;0.32;0.32;;;17.40;99.90;;;;;;5043531;28;20116;-69
2023/07/31 07:13:22;;;;;;;0.00;0.00;;;17.50;99.90;;;;;;5039665;28;20102;-69
2023/07/31 07:15:49;;;;;;;0.85;0.55;;;17.50;99.90;;;;;;5037406;28;20120;-69
2023/07/31 07:18:14;;;;;;;0.00;0.00;;;17.50;99.90;;;;;;5042296;28;20433;-69
2023/07/31 07:20:40;;;;;;;0.88;0.88;;;17.50;99.90;;;;;;5042187;28;20029;-69
2023/07/31 07:23:06;;;;;;;0.00;0.00;;;17.50;99.90;;;;;;5022492;28;20057;-69
2023/07/31 07:25:32;;;;;;;0.45;0.45;;;17.50;99.90;;;;;;5034750;28;20498;-69
2023/07/31 07:27:57;;;;;;;0.45;0.45;;;17.60;99.90;;;;;;5041916;28;20044;-69
2023/07/31 07:30:25;;;;;;;0.38;0.30;;;17.60;99.90;;;;;;5037165;28;20045;-69
2023/07/31 07:32:50;;;;;;;0.00;0.00;;;17.60;99.90;;;;;;5026739;28;20053;-69
2023/07/31 07:35:16;;;;;;;0.00;0.00;;;17.70;99.90;;;;;;5044682;28;20055;-70
2023/07/31 07:37:41;;;;;;;0.00;0.00;;;17.70;99.90;;;;;;5048446;28;20095;-70
2023/07/31 07:40:08;;;;;;;0.00;0.00;;;17.70;99.90;;;;;;5049031;28;20047;-69
2023/07/31 07:42:33;;;;;;;0.00;0.00;;;17.70;99.90;;;;;;5034873;28;20045;-69
2023/07/31 07:44:59;;;;;;;0.00;0.00;;;17.70;99.90;;;;;;5036868;28;20033;-69
2023/07/31 07:47:24;;;;;;;0.00;0.00;;;17.70;99.90;;;;;;5035165;28;20492;-69
2023/07/31 07:49:50;;;;;;;0.00;0.00;;;17.70;99.90;;;;;;5038128;28;20068;-70
2023/07/31 07:52:16;;;;;;;0.00;0.00;;;17.80;99.90;;;;;;5029815;28;20078;-69
2023/07/31 07:54:41;;;;;;;0.00;0.00;;;17.80;99.90;;;;;;5040654;28;20056;-70
2023/07/31 07:57:07;;;;;;;0.00;0.00;;;17.80;99.90;;;;;;5043070;28;20068;-70
2023/07/31 07:59:32;;;;;;;0.00;0.00;;;17.90;99.90;;;;;;5023461;28;20512;-69
2023/07/31 08:01:58;;;;;;;0.00;0.00;;;17.90;99.90;;;;;;5040113;28;20052;-70
2023/07/31 08:04:24;;;;;;;0.00;0.00;;;17.90;99.90;;;;;;5042368;28;20547;-70
2023/07/31 08:06:49;;;;;;;0.00;0.00;;;18.00;99.90;;;;;;5040506;28;20040;-69
2023/07/31 08:09:15;;;;;;;0.00;0.00;;;18.00;99.90;;;;;;5027578;28;20045;-69
2023/07/31 08:11:41;;;;;;;0.00;0.00;;;18.00;99.90;;;;;;5044955;28;20042;-68
2023/07/31 08:14:06;;;;;;;0.00;0.00;;;18.00;99.90;;;;;;5046607;28;20046;-68
2023/07/31 08:16:32;;;;;;;0.00;0.00;;;18.00;99.90;;;;;;5039505;28;20492;-69
2023/07/31 08:18:58;;;;;;;0.00;0.00;;;18.10;99.90;;;;;;5020341;28;20057;-69
2023/07/31 08:21:23;;;;;;;0.00;0.00;;;18.10;99.90;;;;;;5045446;28;20052;-70
2023/07/31 08:23:49;;;;;;;0.00;0.00;;;18.20;99.90;;;;;;5040053;28;20049;-69
2023/07/31 08:26:19;;;;;;;0.00;0.00;;;18.30;99.90;;;;;;5037483;28;20162;-70
2023/07/31 08:28:44;;;;;;;0.00;0.00;;;18.40;99.90;;;;;;5035966;28;20429;-70
2023/07/31 08:31:10;;;;;;;0.10;0.10;;;18.50;99.90;;;;;;5036271;28;20045;-71
2023/07/31 08:33:36;;;;;;;0.00;0.00;;;18.40;99.90;;;;;;5041929;28;20048;-71
2023/07/31 08:36:02;;;;;;;0.38;0.38;;;18.40;99.90;;;;;;5037305;28;20187;-71
2023/07/31 08:38:29;;;;;;;0.10;0.10;;;18.40;99.90;;;;;;5034744;28;20060;-71
2023/07/31 08:40:56;;;;;;;0.00;0.00;;;18.40;99.90;;;;;;5043870;28;20408;-71
2023/07/31 08:43:27;;;;;;;0.03;0.03;;;18.50;99.90;;;;;;5038827;28;20034;-71
2023/07/31 08:45:53;;;;;;;0.30;0.30;;;18.50;99.90;;;;;;5046968;28;20162;-71
2023/07/31 08:48:21;;;;;;;0.00;0.00;;;18.40;99.90;;;;;;5028954;28;20077;-71
2023/07/31 08:50:46;;;;;;;0.03;0.03;;;18.40;99.90;;;;;;5036698;28;20052;-71
2023/07/31 08:53:12;;;;;;;1.60;0.93;;;18.40;99.90;;;;;;5037650;28;20045;-71
2023/07/31 08:55:38;;;;;;;0.00;0.00;;;18.40;99.90;;;;;;5033863;28;20403;-71
2023/07/31 08:58:04;;;;;;;0.22;0.22;;;18.40;99.90;;;;;;5046359;28;20053;-71
2023/07/31 09:00:32;;;;;;;0.00;0.00;;;18.50;99.90;;;;;;5022742;28;20041;-71
2023/07/31 09:03:06;;;;;;;0.00;0.00;;;18.40;99.90;;;;;;5044363;28;20137;-71
2023/07/31 09:05:34;;;;;;;0.00;0.00;;;18.40;99.90;;;;;;5043235;28;20041;-71
2023/07/31 09:08:01;;;;;;;0.00;0.00;;;18.40;99.90;;;;;;5037241;28;20033;-71
2023/07/31 09:10:27;;;;;;;2.00;0.80;;;18.50;99.90;;;;;;5041622;28;20119;-71
2023/07/31 09:12:53;;;;;;;0.00;0.00;;;18.50;99.90;;;;;;5046054;28;20124;-71
2023/07/31 09:15:19;;;;;;;0.00;0.00;;;18.60;99.90;;;;;;5038638;28;20036;-71
2023/07/31 09:17:45;;;;;;;0.00;0.00;;;18.60;99.90;;;;;;5039146;28;20124;-71
2023/07/31 09:20:18;;;;;;;0.00;0.00;;;18.60;99.90;;;;;;5029535;28;20462;-71
2023/07/31 09:22:44;;;;;;;0.00;0.00;;;18.60;99.90;;;;;;5038630;28;20048;-70
2023/07/31 09:25:22;;;;;;;0.00;0.00;;;18.60;99.90;;;;;;5042390;28;20049;-70
2023/07/31 09:27:58;;;;;;;0.00;0.00;;;18.60;99.90;;;;;;5014947;28;20060;-71
2023/07/31 09:30:24;;;;;;;0.00;0.00;;;18.60;99.90;;;;;;5048480;28;20063;-71
2023/07/31 09:32:51;;;;;;;0.00;0.00;;;18.70;99.90;;;;;;5025905;28;20496;-71
2023/07/31 09:35:30;;;;;;;0.00;0.00;;;18.60;99.90;;;;;;5041636;28;20389;-70
2023/07/31 09:37:58;;;;;;;0.00;0.00;;;18.60;99.90;;;;;;5039218;28;20045;-71
2023/07/31 09:40:29;;;;;;;0.03;0.03;;;18.60;99.90;;;;;;5042199;28;20227;-71
2023/07/31 09:43:04;;;;;;;0.00;0.00;;;18.70;99.90;;;;;;5036270;28;20095;-71
2023/07/31 09:45:33;;;;;;;0.00;0.00;;;18.80;99.90;;;;;;5040336;28;20051;-71
2023/07/31 09:47:58;;;;;;;0.30;0.30;;;18.80;99.90;;;;;;5039203;28;20053;-71
2023/07/31 09:50:24;;;;;;;0.00;0.00;;;18.80;99.90;;;;;;5019258;28;20049;-71
2023/07/31 09:52:53;;;;;;;0.00;0.00;;;18.80;99.90;;;;;;5029714;28;20057;-71
2023/07/31 09:55:20;;;;;;;0.00;0.00;;;18.80;99.90;;;;;;5023223;28;20033;-70
2023/07/31 09:57:49;;;;;;;0.00;0.00;;;18.80;99.90;;;;;;5037913;28;20404;-71
2023/07/31 10:00:18;;;;;;;0.00;0.00;;;19.00;99.90;;;;;;5045973;28;20049;-71
2023/07/31 10:02:47;;;;;;;0.00;0.00;;;19.00;99.90;;;;;;5027721;28;20439;-70
2023/07/31 10:05:16;;;;;;;0.00;0.00;;;19.10;99.90;;;;;;5024241;28;20080;-71
2023/07/31 10:07:55;;;;;;;0.00;0.00;;;19.20;99.90;;;;;;5025707;28;20072;-71
2023/07/31 10:10:22;;;;;;;0.00;0.00;;;19.10;99.90;;;;;;5023966;28;20052;-70
2023/07/31 10:12:52;;;;;;;0.38;0.38;;;19.30;99.90;;;;;;5042563;28;20048;-70
2023/07/31 10:15:19;;;;;;;0.00;0.00;;;19.30;99.90;;;;;;5046789;28;20041;-70
2023/07/31 10:17:49;;;;;;;0.30;0.30;;;19.50;99.90;;;;;;5028088;28;20040;-71
2023/07/31 10:20:18;;;;;;;0.00;0.00;;;19.50;99.90;;;;;;5045218;28;20124;-71
2023/07/31 10:22:48;;;;;;;0.10;0.10;;;19.40;99.90;;;;;;5024902;28;20080;-71
2023/07/31 10:25:14;;;;;;;0.00;0.00;;;19.40;99.90;;;;;;5045314;28;20052;-72
2023/07/31 10:27:41;;;;;;;0.00;0.00;;;19.30;99.90;;;;;;5037551;28;20049;-72
2023/07/31 10:30:10;;;;;;;0.28;0.28;;;19.20;99.90;;;;;;5023472;28;20050;-71
2023/07/31 10:32:37;;;;;;;0.00;0.00;;;19.00;99.90;;;;;;5037715;28;20084;-71
2023/07/31 10:35:04;;;;;;;0.00;0.00;;;19.00;99.90;;;;;;5040990;28;20064;-71
2023/07/31 10:37:35;;;;;;;0.10;0.10;;;19.00;99.90;;;;;;5036684;28;20440;-70
2023/07/31 10:40:07;;;;;;;0.00;0.00;;;18.90;99.90;;;;;;5041628;28;20048;-71
2023/07/31 10:42:37;;;;;;;0.00;0.00;;;18.90;99.90;;;;;;5039755;28;20041;-71
2023/07/31 10:45:04;;;;;;;0.13;0.13;;;19.00;99.90;;;;;;5038538;28;20094;-71
2023/07/31 10:47:30;;;;;;;0.10;0.10;;;19.10;99.90;;;;;;5017159;28;20045;-71
2023/07/31 10:50:19;;;;;;;0.00;0.00;;;19.20;99.90;;;;;;5049191;28;20072;-71
2023/07/31 10:52:51;;;;;;;0.03;0.03;;;19.30;99.90;;;;;;5023275;28;20049;-71
2023/07/31 10:55:40;;;;;;;0.10;0.10;;;19.30;99.90;;;;;;5031653;28;20045;-71
2023/07/31 10:58:12;;;;;;;0.00;0.00;;;19.20;99.90;;;;;;5044728;28;20045;-71
2023/07/31 11:00:47;;;;;;;0.00;0.00;;;19.20;99.90;;;;;;5035101;28;20065;-71
2023/07/31 11:03:17;;;;;;;0.00;0.00;;;19.20;99.90;;;;;;5028416;28;20451;-71
2023/07/31 11:05:50;;;;;;;0.00;0.00;;;19.20;99.90;;;;;;5035721;28;20041;-71
2023/07/31 11:08:23;;;;;;;0.00;0.00;;;19.20;99.90;;;;;;5021759;28;20048;-71
2023/07/31 11:11:10;;;;;;;0.10;0.10;;;19.10;99.90;;;;;;5037080;28;20045;-71
2023/07/31 11:13:40;;;;;;;0.00;0.00;;;19.10;99.90;;;;;;5031837;28;20107;-71
2023/07/31 11:16:06;;;;;;;0.38;0.30;;;19.10;99.90;;;;;;5044929;28;20131;-72
2023/07/31 11:18:31;;;;;;;0.00;0.00;;;19.10;99.90;;;;;;5024970;28;20457;-71
2023/07/31 11:20:57;;;;;;;0.30;0.25;;;19.20;99.90;;;;;;5043349;28;20033;-71
2023/07/31 11:23:23;;;;;;;0.17;0.15;;;19.20;99.90;;;;;;5046507;28;20036;-72
2023/07/31 11:25:50;;;;;;;0.35;0.35;;;19.20;99.90;;;;;;5032064;28;20041;-71
2023/07/31 11:28:17;;;;;;;0.30;0.30;;;19.30;99.90;;;;;;5024148;28;20045;-70
2023/07/31 11:30:44;;;;;;;0.00;0.00;;;19.30;99.90;;;;;;5039834;28;20037;-71
2023/07/31 11:33:12;;;;;;;7.68;1.40;;;19.10;99.90;;;;;;5039946;28;20068;-71
2023/07/31 11:35:49;;;;;;;0.10;0.10;;;19.20;99.90;;;;;;5019560;28;20128;-71
2023/07/31 11:38:26;;;;;;;0.00;0.00;;;19.30;99.90;;;;;;5036295;28;20405;-71
2023/07/31 11:40:53;;;;;;;0.00;0.00;;;19.50;99.90;;;;;;5019506;28;20492;-71
2023/07/31 11:43:19;;;;;;;0.00;0.00;;;19.50;99.90;;;;;;5039071;28;20439;-71
2023/07/31 11:45:48;;;;;;;0.00;0.00;;;19.50;99.90;;;;;;5020588;28;20041;-72
2023/07/31 11:48:26;;;;;;;0.00;0.00;;;19.70;99.90;;;;;;5022638;28;20075;-72
2023/07/31 11:50:53;;;;;;;0.10;0.10;;;19.80;99.90;;;;;;5036706;28;20488;-71
2023/07/31 11:53:26;;;;;;;0.00;0.00;;;19.80;99.90;;;;;;5040634;28;20046;-72
2023/07/31 11:55:52;;;;;;;0.00;0.00;;;19.80;99.90;;;;;;5019541;28;20091;-70
2023/07/31 11:58:19;;;;;;;2.63;1.50;;;19.80;99.90;;;;;;5041367;28;20045;-72
2023/07/31 12:00:45;;;;;;;0.00;0.00;;;19.70;99.90;;;;;;5019546;28;20548;-72
2023/07/31 12:03:11;;;;;;;0.00;0.00;;;19.70;99.90;;;;;;5039261;28;20562;-72
2023/07/31 12:05:38;;;;;;;0.10;0.10;;;19.60;99.90;;;;;;5032857;28;20065;-72
2023/07/31 12:08:09;;;;;;;0.10;0.10;;;19.60;99.90;;;;;;5029429;28;20867;-72
2023/07/31 12:10:35;;;;;;;0.00;0.00;;;19.60;99.90;;;;;;5043923;28;20048;-72
2023/07/31 12:13:06;;;;;;;0.20;0.20;;;19.60;99.90;;;;;;5042230;28;20037;-72
2023/07/31 12:15:43;;;;;;;0.00;0.00;;;19.70;99.90;;;;;;5022053;28;20135;-72
2023/07/31 12:18:13;;;;;;;0.13;0.13;;;19.70;99.90;;;;;;5027309;28;20055;-72
2023/07/31 12:20:41;;;;;;;0.00;0.00;;;19.60;99.90;;;;;;5033042;28;20049;-72
2023/07/31 12:23:12;;;;;;;0.00;0.00;;;19.50;99.90;;;;;;5043245;28;20056;-72
2023/07/31 12:25:37;;;;;;;0.00;0.00;;;19.50;99.90;;;;;;5036720;28;20046;-73
2023/07/31 12:28:11;;;;;;;3.83;1.85;;;19.50;99.90;;;;;;5035659;28;20423;-72
2023/07/31 12:30:37;;;;;;;0.00;0.00;;;19.50;99.90;;;;;;5032149;28;20120;-72
2023/07/31 12:33:12;;;;;;;0.00;0.00;;;19.50;99.90;;;;;;5040828;28;20041;-72
2023/07/31 12:35:40;;;;;;;0.10;0.10;;;19.50;99.90;;;;;;5034244;28;20404;-72
2023/07/31 12:38:06;;;;;;;0.63;0.63;;;19.50;99.90;;;;;;5031135;28;20046;-72
2023/07/31 12:40:32;;;;;;;0.15;0.15;;;19.50;99.90;;;;;;5038909;28;20041;-73
2023/07/31 12:43:00;;;;;;;0.00;0.00;;;19.50;99.90;;;;;;5039998;28;20060;-73
2023/07/31 12:45:26;;;;;;;0.00;0.00;;;19.50;99.90;;;;;;5036160;28;20041;-72
2023/07/31 12:47:52;;;;;;;0.08;0.08;;;19.50;99.90;;;;;;5037328;28;20049;-72